Strona główna
METAR-TAF:

METAR-TAF

Lotnisko :

Port lotniczy Singapur-Changi

Singapur, Singapur

Szerokość geograficzna: 01-22N, Długość geograficzna: 103-59E, wysokość: 5 m

Aktualna obserwacja pogody

Raport powstał 28 minut temu, godzina 06:30 UTC
Wiatr 12 kt od północny wschód, zmienny między północ i wschód
Temperatura 31°C
Wilgotność 63%
Ciśnienie 1009 hPa
Widzialność 10 km lub więcej
Mało chmury na wysokości 2000 ft
Przerywane chmury na wysokości 30000 ft

METAR: WSSS 280630Z 04012KT 360V080 9999 FEW020 BKN300 31/23 Q1009 NOSIG

czas: 14:58 (06:58 UTC)

Prognoza

Raport powstał 1 godzina i 58 minut temu, godzina 05:00 UTC
Prognoza ważna od 28 godzina 06 UTC do 29 godzina 12 UTC
Wiatr 10 kt od północno-północny wschód
Widzialność 10 km lub więcej
Mało chmury na wysokości 1500 ft
Rozproszone chmury na wysokości 2000 ft

TAF: WSSS 280500Z 2806/2912 03010KT 9999 FEW015 SCT020

Obserwacja i prognoza pogody dla ponad 4000 lotnisk (raport METAR i TAF).

Dostępne stacje oznaczono żółtymi i czerwonymi punktami na mapie.

Najedź kursorem aby zobaczyć nazwę stacji.

Kliknij aby zobaczyć obserwacje i prognozy pogody.

Aby zmienić mapę: kliknij na zielony przycisk z czarnym krzyżykiem, aby powiększyć; na zielony przycisk z myślnikiem, aby pomniejszyć; na zielone strzałki, aby przejść do map sąsiednich.


METAR-TAF: